Time;durP1;ratioP1;P1;durP2;ratioP2;P2;SDS_P1;SDS_P2;PMS_P1;PMS_P2;Temp;Humidity;BMP_temperature;BMP_pressure;BME280_temperature;BME280_humidity;BME280_pressure;Samples;Min_cycle;Max_cycle;Signal;HPM_P1;HPM_P2
2023/02/19 00:02:05;;;;;;;;;14.67;12.00;;;;;13.98;100.00;102159.56;5143438;27;45373;-74
2023/02/19 00:04:30;;;;;;;;;11.67;10.00;;;;;13.97;100.00;102149.91;5143259;27;45383;-73
2023/02/19 00:06:56;;;;;;;;;11.00;10.00;;;;;13.97;100.00;102154.41;5143074;27;46029;-74
2023/02/19 00:09:21;;;;;;;;;11.67;11.33;;;;;13.96;100.00;102160.75;5142935;27;45322;-73
2023/02/19 00:11:47;;;;;;;;;11.00;11.00;;;;;13.98;100.00;102170.28;5143219;27;45411;-74
2023/02/19 00:14:18;;;;;;;;;10.33;9.67;;;;;13.99;100.00;102158.59;5143104;27;45168;-73
2023/02/19 00:16:44;;;;;;;;;9.00;9.00;;;;;14.00;100.00;102157.59;5143000;27;46012;-73
2023/02/19 00:19:12;;;;;;;;;9.67;9.67;;;;;14.00;100.00;102156.75;5142977;27;45314;-74
2023/02/19 00:21:37;;;;;;;;;9.33;9.33;;;;;14.02;100.00;102149.41;5142964;27;45234;-73
2023/02/19 00:24:05;;;;;;;;;11.33;10.33;;;;;13.99;100.00;102163.94;5142799;27;45300;-73
2023/02/19 00:26:32;;;;;;;;;10.67;10.67;;;;;13.98;100.00;102150.75;5142632;27;46655;-73
2023/02/19 00:28:59;;;;;;;;;9.67;9.67;;;;;13.98;100.00;102148.88;5142745;27;45418;-73
2023/02/19 00:31:27;;;;;;;;;9.67;9.67;;;;;13.98;100.00;102146.22;5143093;27;45267;-73
2023/02/19 00:33:58;;;;;;;;;10.67;10.00;;;;;14.00;100.00;102149.56;5142516;27;45290;-73
2023/02/19 00:36:25;;;;;;;;;10.00;10.00;;;;;14.01;100.00;102147.75;5142774;27;46206;-73
2023/02/19 00:38:51;;;;;;;;;12.00;10.33;;;;;14.01;100.00;102153.91;5142743;27;45483;-73
2023/02/19 00:41:18;;;;;;;;;11.00;11.00;;;;;14.03;100.00;102151.06;5123985;27;45333;-73
2023/02/19 00:43:48;;;;;;;;;10.67;9.67;;;;;14.04;100.00;102138.56;5142423;27;45213;-73
2023/02/19 00:46:16;;;;;;;;;11.67;10.00;;;;;14.00;100.00;102140.72;5142625;27;45454;-74
2023/02/19 00:48:41;;;;;;;;;10.00;10.00;;;;;14.03;100.00;102140.38;5123914;27;46176;-73
2023/02/19 00:51:06;;;;;;;;;10.33;9.00;;;;;14.00;100.00;102138.03;5142651;27;45388;-73
2023/02/19 00:53:32;;;;;;;;;8.67;8.67;;;;;13.97;100.00;102127.66;5142428;27;45662;-73
2023/02/19 00:55:57;;;;;;;;;9.00;9.00;;;;;13.97;100.00;102125.84;5142425;27;46520;-73
2023/02/19 00:58:22;;;;;;;;;10.00;9.00;;;;;14.02;100.00;102117.34;5123590;27;45175;-73
2023/02/19 01:00:48;;;;;;;;;10.00;6.67;;;;;13.98;100.00;102118.66;5142764;27;45382;-73
2023/02/19 01:03:13;;;;;;;;;9.33;9.33;;;;;13.96;100.00;102116.16;5142177;27;45297;-73
2023/02/19 01:05:38;;;;;;;;;7.00;6.00;;;;;13.96;100.00;102108.13;5142305;27;46495;-74
2023/02/19 01:08:03;;;;;;;;;8.33;8.00;;;;;13.95;100.00;102110.97;5141995;27;45214;-73
2023/02/19 01:10:29;;;;;;;;;8.00;8.00;;;;;13.93;100.00;102104.94;5142171;27;45347;-73
2023/02/19 01:12:54;;;;;;;;;8.67;8.67;;;;;13.96;100.00;102116.16;5142067;27;45589;-73
2023/02/19 01:15:20;;;;;;;;;6.00;6.00;;;;;13.94;100.00;102106.59;5142281;27;45264;-73
2023/02/19 01:17:45;;;;;;;;;8.00;7.67;;;;;13.93;100.00;102118.31;5140411;27;45242;-73
2023/02/19 01:20:10;;;;;;;;;7.33;7.33;;;;;13.89;100.00;102121.31;5123708;27;45409;-73
2023/02/19 01:22:35;;;;;;;;;9.00;9.00;;;;;13.93;100.00;102129.00;5141746;27;45414;-73
2023/02/19 01:25:01;;;;;;;;;8.33;8.33;;;;;13.92;100.00;102122.00;5141581;27;45392;-73
2023/02/19 01:27:26;;;;;;;;;8.00;8.00;;;;;13.94;100.00;102130.66;5141835;27;45349;-72
2023/02/19 01:29:52;;;;;;;;;12.00;11.00;;;;;13.91;100.00;102123.00;5142104;27;45283;-74
2023/02/19 01:32:17;;;;;;;;;7.67;7.67;;;;;13.89;100.00;102112.47;5122618;27;45881;-73
2023/02/19 01:34:42;;;;;;;;;9.33;9.33;;;;;13.87;100.00;102120.66;5140229;27;48777;-73
2023/02/19 01:37:10;;;;;;;;;7.00;7.00;;;;;13.89;100.00;102121.31;5140918;27;45274;-73
2023/02/19 01:39:37;;;;;;;;;9.33;8.00;;;;;13.87;100.00;102130.50;5141701;27;45481;-73
2023/02/19 01:42:04;;;;;;;;;8.67;8.33;;;;;13.82;100.00;102114.94;5122614;27;46119;-73
2023/02/19 01:44:29;;;;;;;;;10.00;8.67;;;;;13.85;100.00;102119.13;5141641;27;45331;-73
2023/02/19 01:46:57;;;;;;;;;9.00;9.00;;;;;13.83;100.00;102127.28;5122768;27;45240;-73
2023/02/19 01:49:38;;;;;;;;;7.00;7.00;;;;;13.84;100.00;102136.16;5123194;27;45400;-73
2023/02/19 01:52:14;;;;;;;;;7.00;7.00;;;;;13.82;100.00;102138.13;5141445;27;45325;-74
2023/02/19 01:54:42;;;;;;;;;11.00;8.33;;;;;13.83;100.00;102137.16;5141324;27;45342;-73
2023/02/19 01:57:15;;;;;;;;;10.67;10.67;;;;;13.87;100.00;102147.38;5141376;27;45547;-74
2023/02/19 01:59:42;;;;;;;;;8.00;8.00;;;;;13.89;100.00;102134.66;5141567;27;45285;-73
2023/02/19 02:02:08;;;;;;;;;8.00;7.00;;;;;13.86;100.00;102126.16;5141037;27;45286;-73
2023/02/19 02:04:34;;;;;;;;;7.00;7.00;;;;;13.84;100.00;102122.78;5141464;27;46120;-73
2023/02/19 02:07:02;;;;;;;;;7.00;7.00;;;;;13.89;100.00;102123.16;5140925;27;45343;-73
2023/02/19 02:12:14;;;;;;;;;8.00;8.00;;;;;13.92;100.00;102124.66;5141418;27;45479;-73
2023/02/19 02:14:44;;;;;;;;;9.00;9.00;;;;;13.89;100.00;102123.97;5140874;27;46035;-74
2023/02/19 02:17:17;;;;;;;;;10.33;10.33;;;;;13.89;100.00;102120.47;5122639;27;45365;-73
2023/02/19 02:20:17;;;;;;;;;9.00;9.00;;;;;13.88;100.00;102127.66;5141160;27;45289;-73
2023/02/19 02:23:12;;;;;;;;;10.00;10.00;;;;;13.89;100.00;102132.00;5122124;27;46325;-73
2023/02/19 02:26:07;;;;;;;;;9.33;8.67;;;;;13.88;100.00;102130.31;5102796;27;45738;-74
2023/02/19 02:28:32;;;;;;;;;8.67;8.67;;;;;13.90;100.00;102132.84;5109869;27;45363;-73
2023/02/19 02:31:21;;;;;;;;;7.00;7.00;;;;;13.92;100.00;102127.34;5120385;27;45361;-73
2023/02/19 02:33:56;;;;;;;;;6.67;6.67;;;;;13.91;100.00;102133.69;5120339;27;45373;-73
2023/02/19 02:36:43;;;;;;;;;6.33;6.33;;;;;13.91;100.00;102134.50;5120337;27;45393;-73
2023/02/19 02:39:13;;;;;;;;;6.00;6.00;;;;;13.94;100.00;102136.00;5119555;27;45634;-73
2023/02/19 02:42:26;;;;;;;;;7.00;7.00;;;;;13.93;100.00;102140.53;5120098;27;45204;-73
2023/02/19 02:44:35;;;;;;;;;8.00;7.00;;;;;13.90;100.00;102140.84;5119272;27;45424;-74
2023/02/19 02:47:04;;;;;;;;;6.00;6.00;;;;;13.91;100.00;102142.53;5119873;27;46742;-73
2023/02/19 02:49:30;;;;;;;;;5.67;5.67;;;;;13.92;100.00;102138.03;5121792;27;45316;-73
2023/02/19 02:51:56;;;;;;;;;7.00;7.00;;;;;13.97;100.00;102138.34;5123814;27;45344;-74
2023/02/19 02:57:18;;;;;;;;;7.00;7.00;;;;;13.96;100.00;102129.53;5123205;27;45824;-73
2023/02/19 02:59:44;;;;;;;;;6.00;6.00;;;;;13.99;100.00;102129.19;5123488;27;45368;-73
2023/02/19 03:02:21;;;;;;;;;6.00;6.00;;;;;13.95;100.00;102124.34;5104910;27;45349;-73
2023/02/19 03:07:49;;;;;;;;;7.00;4.00;;;;;13.94;100.00;102131.50;5123211;27;45347;-73
2023/02/19 03:10:19;;;;;;;;;4.00;4.00;;;;;13.93;100.00;102135.19;5123163;27;45288;-73
2023/02/19 03:21:08;;;;;;;;;5.00;4.00;;;;;13.97;100.00;102130.34;5122769;27;45339;-73
2023/02/19 03:26:20;;;;;;;;;3.67;3.33;;;;;13.97;100.00;102128.50;5143615;27;45355;-73
2023/02/19 03:31:34;;;;;;;;;3.33;3.33;;;;;13.97;100.00;102128.50;5143806;27;45415;-73
2023/02/19 03:34:04;;;;;;;;;5.33;4.33;;;;;13.99;100.00;102126.53;5143703;27;45285;-73
2023/02/19 03:36:39;;;;;;;;;6.00;6.00;;;;;13.97;100.00;102120.50;5143795;27;45342;-73
2023/02/19 03:39:07;;;;;;;;;4.67;4.00;;;;;13.95;100.00;102122.47;5143444;27;45478;-74
2023/02/19 03:41:42;;;;;;;;;3.67;3.00;;;;;13.98;100.00;102121.34;5143697;27;45275;-73
2023/02/19 03:44:23;;;;;;;;;4.00;4.00;;;;;13.97;100.00;102120.50;5143655;27;45336;-73
2023/02/19 03:47:03;;;;;;;;;5.00;5.00;;;;;13.99;100.00;102126.53;5143584;27;45400;-73
2023/02/19 03:49:39;;;;;;;;;4.00;4.00;;;;;13.97;100.00;102123.16;5130724;27;46413;-73
2023/02/19 03:52:15;;;;;;;;;6.00;5.00;;;;;13.99;100.00;102113.16;5143330;27;45226;-73
2023/02/19 03:55:07;;;;;;;;;3.33;3.33;;;;;14.03;100.00;102126.19;5143473;27;45293;-73
2023/02/19 03:58:03;;;;;;;;;4.00;4.00;;;;;14.04;100.00;102126.03;5130946;27;45313;-73
2023/02/19 04:00:42;;;;;;;;;3.33;3.33;;;;;13.98;100.00;102127.50;5142467;27;45361;-73
2023/02/19 04:03:19;;;;;;;;;4.00;3.00;;;;;13.99;100.00;102137.22;5143056;27;45304;-74
2023/02/19 04:05:50;;;;;;;;;5.00;5.00;;;;;13.97;100.00;102144.56;5143507;27;45396;-73
2023/02/19 04:08:19;;;;;;;;;3.33;3.33;;;;;13.95;100.00;102135.84;5143189;27;45390;-73
2023/02/19 04:10:46;;;;;;;;;4.33;4.33;;;;;13.90;100.00;102135.50;5142957;27;46200;-73
2023/02/19 04:13:24;;;;;;;;;3.00;3.00;;;;;13.94;100.00;102136.84;5143018;27;45368;-73
2023/02/19 04:15:53;;;;;;;;;2.67;2.67;;;;;13.92;100.00;102141.50;5143338;27;45244;-73
2023/02/19 04:18:24;;;;;;;;;5.67;4.00;;;;;13.91;100.00;102145.19;5142972;27;45748;-74
2023/02/19 04:20:49;;;;;;;;;3.00;3.00;;;;;13.91;100.00;102147.88;5142982;27;45292;-73
2023/02/19 04:23:18;;;;;;;;;3.00;3.00;;;;;13.86;100.00;102159.03;5142900;27;45213;-73
2023/02/19 04:25:47;;;;;;;;;5.67;3.67;;;;;13.87;100.00;102157.22;5142670;27;45404;-73
2023/02/19 04:28:15;;;;;;;;;4.67;4.33;;;;;13.86;100.00;102160.91;5142873;27;45486;-74
2023/02/19 04:30:41;;;;;;;;;3.00;3.00;;;;;13.87;100.00;102162.56;5141053;27;47091;-74
2023/02/19 04:33:06;;;;;;;;;4.00;2.33;;;;;13.87;100.00;102167.91;5142859;27;45342;-73
2023/02/19 04:35:32;;;;;;;;;4.00;3.00;;;;;13.87;100.00;102166.06;5124201;27;45332;-74
2023/02/19 04:37:57;;;;;;;;;4.33;4.00;;;;;13.90;100.00;102170.25;5141074;27;46318;-74
2023/02/19 04:40:22;;;;;;;;;4.33;2.67;;;;;13.92;100.00;102162.91;5142450;27;46144;-73
2023/02/19 04:42:48;;;;;;;;;3.67;3.67;;;;;13.91;100.00;102166.56;5142662;27;45354;-73
2023/02/19 04:45:13;;;;;;;;;2.00;1.67;;;;;13.89;100.00;102174.75;5142837;27;45586;-74
2023/02/19 04:47:38;;;;;;;;;2.00;1.33;;;;;13.91;100.00;102176.44;5142349;27;45503;-73
2023/02/19 04:50:04;;;;;;;;;2.67;2.67;;;;;13.87;100.00;102174.09;5142473;27;45361;-73
2023/02/19 04:52:29;;;;;;;;;2.00;2.00;;;;;13.88;100.00;102183.78;5142506;27;45331;-74
2023/02/19 04:54:54;;;;;;;;;3.33;3.33;;;;;13.83;100.00;102175.38;5142479;27;45348;-74
2023/02/19 04:57:20;;;;;;;;;5.67;4.67;;;;;13.87;100.00;102186.59;5142271;27;45380;-73
2023/02/19 04:59:46;;;;;;;;;4.00;3.00;;;;;13.83;100.00;102194.09;5142300;27;45727;-74
2023/02/19 05:02:11;;;;;;;;;5.67;4.67;;;;;13.75;100.00;102192.25;5142138;27;45360;-73
2023/02/19 05:04:36;;;;;;;;;3.67;3.00;;;;;13.79;100.00;102205.25;5142496;27;45309;-73
2023/02/19 05:07:02;;;;;;;;;4.00;3.67;;;;;13.80;100.00;102212.31;5142034;27;45407;-74
2023/02/19 05:09:27;;;;;;;;;5.00;3.67;;;;;13.81;100.00;102208.63;5123343;27;48054;-74
2023/02/19 05:11:52;;;;;;;;;5.33;3.00;;;;;13.74;100.00;102208.44;5141193;27;45256;-74
2023/02/19 05:14:18;;;;;;;;;4.33;4.00;;;;;13.74;100.00;102213.78;5142050;27;45359;-73
2023/02/19 05:16:43;;;;;;;;;3.00;2.00;;;;;13.76;100.00;102214.44;5142174;27;45211;-74
2023/02/19 05:19:11;;;;;;;;;3.33;3.33;;;;;13.74;100.00;102219.13;5142113;27;45342;-74
2023/02/19 05:21:39;;;;;;;;;3.67;3.67;;;;;13.78;100.00;102216.97;5123189;27;45353;-73
2023/02/19 05:24:04;;;;;;;;;2.00;2.00;;;;;13.83;100.00;102223.50;5141815;27;45384;-74
2023/02/19 05:26:30;;;;;;;;;4.00;2.33;;;;;13.83;100.00;102215.47;5141612;27;45402;-74
2023/02/19 05:28:55;;;;;;;;;5.00;3.67;;;;;13.88;100.00;102223.00;5141875;27;45350;-73
2023/02/19 05:31:21;;;;;;;;;4.00;3.00;;;;;13.90;100.00;102221.03;5139774;27;45830;-74
2023/02/19 05:33:49;;;;;;;;;3.67;2.67;;;;;13.88;100.00;102231.88;5141965;27;45353;-74
2023/02/19 05:36:16;;;;;;;;;4.67;3.00;;;;;13.92;100.00;102231.56;5141783;27;45975;-73
2023/02/19 05:38:41;;;;;;;;;2.00;2.00;;;;;13.95;100.00;102232.06;5141827;27;46820;-73
2023/02/19 05:41:14;;;;;;;;;2.33;1.67;;;;;13.93;100.00;102227.88;5141395;27;45608;-74
2023/02/19 05:43:40;;;;;;;;;3.67;3.00;;;;;13.96;100.00;102239.09;5123007;27;45239;-73
2023/02/19 05:46:07;;;;;;;;;2.00;2.00;;;;;13.93;100.00;102234.06;5141683;27;46081;-73
2023/02/19 05:48:33;;;;;;;;;3.00;3.00;;;;;13.95;100.00;102226.72;5141640;27;45300;-73
2023/02/19 05:51:04;;;;;;;;;2.67;1.00;;;;;14.01;100.00;102238.63;5141564;27;45421;-73
2023/02/19 05:53:29;;;;;;;;;3.33;3.00;;;;;13.93;100.00;102225.22;5141633;27;45275;-73
2023/02/19 05:55:55;;;;;;;;;2.33;1.33;;;;;13.91;100.00;102244.06;5141385;27;45404;-73
2023/02/19 05:58:20;;;;;;;;;2.00;2.00;;;;;13.90;100.00;102234.41;5141488;27;45213;-73
2023/02/19 06:00:45;;;;;;;;;2.00;2.00;;;;;13.86;100.00;102233.06;5141470;27;45278;-74
2023/02/19 06:03:11;;;;;;;;;3.00;3.00;;;;;13.84;100.00;102238.56;5141331;27;45298;-73
2023/02/19 06:05:37;;;;;;;;;2.00;2.00;;;;;13.85;100.00;102247.38;5141606;27;45494;-74
2023/02/19 06:08:02;;;;;;;;;4.67;4.00;;;;;13.86;100.00;102241.88;5140903;27;45374;-73
2023/02/19 06:10:27;;;;;;;;;3.67;2.33;;;;;13.86;100.00;102243.75;5141543;27;45701;-73
2023/02/19 06:12:53;;;;;;;;;2.00;2.00;;;;;13.93;100.00;102246.59;5122690;27;45383;-73
2023/02/19 06:15:19;;;;;;;;;3.00;2.67;;;;;13.93;100.00;102235.91;5119436;27;46119;-73
2023/02/19 06:17:44;;;;;;;;;2.00;2.00;;;;;13.95;100.00;102236.59;5134867;27;45326;-73
2023/02/19 06:20:09;;;;;;;;;2.33;2.33;;;;;13.95;100.00;102248.09;5141419;27;45406;-73
2023/02/19 06:22:35;;;;;;;;;3.00;2.33;;;;;13.93;100.00;102247.44;5140712;27;45364;-74
2023/02/19 06:25:00;;;;;;;;;1.33;1.33;;;;;13.89;100.00;102238.91;5140981;27;45960;-73
2023/02/19 06:27:26;;;;;;;;;3.67;3.33;;;;;13.95;100.00;102252.63;5140995;27;45323;-73
2023/02/19 06:29:51;;;;;;;;;1.67;1.67;;;;;13.94;100.00;102251.78;5141067;27;45328;-73
2023/02/19 06:32:16;;;;;;;;;4.00;2.00;;;;;13.94;100.00;102249.09;5141207;27;45341;-73
2023/02/19 06:34:42;;;;;;;;;3.00;3.00;;;;;13.93;100.00;102250.13;5140983;27;45355;-74
2023/02/19 06:37:07;;;;;;;;;3.00;3.00;;;;;13.93;100.00;102255.47;5140832;27;46418;-74
2023/02/19 06:39:32;;;;;;;;;2.00;2.00;;;;;13.94;100.00;102262.47;5141000;27;45348;-74
2023/02/19 06:41:58;;;;;;;;;4.00;3.33;;;;;13.92;100.00;102261.78;5140973;27;45435;-73
2023/02/19 06:44:24;;;;;;;;;3.00;3.00;;;;;13.91;100.00;102265.47;5140629;27;45617;-74
2023/02/19 06:46:50;;;;;;;;;3.33;2.33;;;;;13.93;100.00;102254.63;5140845;27;45364;-73
2023/02/19 06:49:15;;;;;;;;;3.00;3.00;;;;;13.97;100.00;102262.16;5140584;27;45318;-73
2023/02/19 06:51:41;;;;;;;;;3.00;3.00;;;;;13.88;100.00;102249.75;5119746;27;45395;-74
2023/02/19 06:54:07;;;;;;;;;4.67;2.67;;;;;13.91;100.00;102252.09;5133020;27;45531;-73
2023/02/19 06:56:37;;;;;;;;;4.67;2.00;;;;;13.92;100.00;102256.44;5121621;27;47005;-74
2023/02/19 06:59:05;;;;;;;;;3.00;3.00;;;;;13.93;100.00;102268.81;5122304;27;45828;-74
2023/02/19 07:01:32;;;;;;;;;4.00;4.00;;;;;13.84;100.00;102269.78;5140459;27;45227;-74
2023/02/19 07:03:57;;;;;;;;;3.00;3.00;;;;;13.85;100.00;102276.78;5135571;27;45479;-74
2023/02/19 07:06:24;;;;;;;;;2.67;2.00;;;;;13.81;100.00;102276.28;5133326;27;47169;-73
2023/02/19 07:08:51;;;;;;;;;3.00;3.00;;;;;13.79;100.00;102274.72;5140534;27;45318;-75
2023/02/19 07:11:17;;;;;;;;;3.67;3.00;;;;;13.76;100.00;102284.75;5140579;27;45307;-75
2023/02/19 07:13:43;;;;;;;;;3.00;3.00;;;;;13.76;100.00;102290.09;5140144;27;45547;-74
2023/02/19 07:16:10;;;;;;;;;6.33;4.33;;;;;13.84;100.00;102300.00;5140149;27;45308;-75
2023/02/19 07:18:36;;;;;;;;;5.00;4.00;;;;;13.78;100.00;102305.13;5140360;27;45290;-75
2023/02/19 07:21:03;;;;;;;;;4.00;4.00;;;;;13.78;100.00;102302.47;5121680;27;45295;-74
2023/02/19 07:23:28;;;;;;;;;5.00;4.00;;;;;13.82;100.00;102295.81;5140236;27;45353;-75
2023/02/19 07:25:54;;;;;;;;;3.00;2.33;;;;;13.80;100.00;102306.66;5120555;27;48213;-74
2023/02/19 07:28:19;;;;;;;;;3.00;2.00;;;;;13.78;100.00;102297.97;5140185;27;45387;-74
2023/02/19 07:30:44;;;;;;;;;4.00;3.00;;;;;13.83;100.00;102300.16;5140482;27;45349;-74
2023/02/19 07:33:10;;;;;;;;;3.33;3.33;;;;;13.84;100.00;102301.84;5140227;27;45343;-74
2023/02/19 07:35:35;;;;;;;;;3.67;3.00;;;;;13.87;100.00;102325.56;5123224;27;47242;-75
2023/02/19 07:38:00;;;;;;;;;5.67;5.00;;;;;13.88;100.00;102327.25;5143823;27;45326;-74
2023/02/19 07:40:26;;;;;;;;;2.00;2.00;;;;;13.92;100.00;102333.94;5143686;27;45364;-74
2023/02/19 07:42:51;;;;;;;;;2.00;2.00;;;;;13.93;100.00;102335.63;5142197;27;46189;-74
2023/02/19 07:45:16;;;;;;;;;8.00;6.00;;;;;13.93;100.00;102335.63;5143617;27;46108;-75
2023/02/19 07:47:42;;;;;;;;;4.00;4.00;;;;;14.03;100.00;102350.75;5143604;27;45381;-74
2023/02/19 07:50:07;;;;;;;;;3.33;3.33;;;;;14.01;100.00;102343.69;5123326;27;45517;-75
2023/02/19 07:52:33;;;;;;;;;4.33;4.33;;;;;13.91;100.00;102344.81;5143481;27;45290;-74
2023/02/19 07:54:58;;;;;;;;;6.00;5.00;;;;;13.93;100.00;102346.34;5142901;27;46031;-76
2023/02/19 07:57:23;;;;;;;;;3.00;3.00;;;;;13.93;100.00;102340.13;5143769;27;45417;-76
2023/02/19 07:59:49;;;;;;;;;3.00;2.00;;;;;13.92;100.00;102349.16;5143466;27;45254;-76
2023/02/19 08:05:01;;;;;;;;;2.33;2.00;;;;;13.93;100.00;102356.19;5143262;27;45329;-77
2023/02/19 08:07:31;;;;;;;;;5.00;3.00;;;;;13.95;100.00;102367.56;5142918;27;45322;-76
2023/02/19 08:15:25;;;;;;;;;2.67;2.67;;;;;14.03;100.00;102364.94;5142607;27;45854;-74
2023/02/19 08:17:50;;;;;;;;;3.00;2.00;;;;;13.93;100.00;102346.34;5142791;27;45344;-76
2023/02/19 08:20:15;;;;;;;;;3.00;2.00;;;;;14.03;100.00;102358.75;5142815;27;45441;-76
2023/02/19 08:22:40;;;;;;;;;3.33;3.00;;;;;14.05;100.00;102362.94;5124329;27;46192;-76
2023/02/19 08:25:06;;;;;;;;;2.00;1.33;;;;;14.03;100.00;102361.44;5142584;27;45317;-76
2023/02/19 08:27:32;;;;;;;;;4.00;4.00;;;;;14.03;100.00;102367.59;5143084;27;45248;-76
2023/02/19 08:29:57;;;;;;;;;2.33;2.00;;;;;14.08;100.00;102367.13;5141674;27;45296;-74
2023/02/19 08:32:22;;;;;;;;;3.00;2.67;;;;;14.08;100.00;102367.13;5142904;27;45209;-74
2023/02/19 08:34:47;;;;;;;;;3.00;3.00;;;;;14.11;100.00;102364.16;5140859;27;45313;-74
2023/02/19 08:37:13;;;;;;;;;6.00;6.00;;;;;14.16;99.27;102364.53;5143032;27;45367;-74
2023/02/19 08:39:38;;;;;;;;;4.00;3.00;;;;;14.21;98.76;102366.69;5140822;27;45376;-74
2023/02/19 08:42:04;;;;;;;;;2.67;2.33;;;;;14.21;99.24;102356.00;5141307;27;45520;-74
2023/02/19 08:44:29;;;;;;;;;2.00;2.00;;;;;14.24;99.29;102353.84;5141917;27;46404;-74
2023/02/19 08:46:55;;;;;;;;;2.67;2.67;;;;;14.27;99.06;102356.22;5131356;27;45299;-76
2023/02/19 08:49:20;;;;;;;;;3.00;3.00;;;;;14.30;97.17;102370.28;5141055;27;45462;-76
2023/02/19 08:51:45;;;;;;;;;4.67;2.33;;;;;14.28;94.32;102359.75;5142387;27;45403;-77
2023/02/19 08:54:11;;;;;;;;;2.00;2.00;;;;;14.32;95.84;102360.25;5141893;27;46032;-74
2023/02/19 08:56:36;;;;;;;;;1.00;1.00;;;;;14.34;95.85;102359.06;5142496;27;45301;-74
2023/02/19 08:59:01;;;;;;;;;1.00;1.00;;;;;14.40;94.37;102368.31;5140997;27;45317;-74
2023/02/19 09:01:27;;;;;;;;;2.00;2.00;;;;;14.43;93.27;102370.69;5142532;27;45724;-74
2023/02/19 09:03:52;;;;;;;;;3.00;3.00;;;;;14.45;92.15;102379.38;5123336;27;48586;-76
2023/02/19 09:06:19;;;;;;;;;3.00;1.67;;;;;14.52;92.75;102380.41;5136358;27;45518;-76
2023/02/19 09:08:45;;;;;;;;;3.33;3.33;;;;;14.57;92.54;102382.59;5130232;27;45425;-74
2023/02/19 09:11:11;;;;;;;;;2.67;1.67;;;;;14.57;92.46;102365.69;5131723;27;45604;-74
2023/02/19 09:13:36;;;;;;;;;1.33;1.33;;;;;14.59;88.84;102366.38;5122341;27;46397;-74
2023/02/19 09:16:03;;;;;;;;;1.67;1.33;;;;;14.56;88.87;102364.88;5120300;27;46003;-77
2023/02/19 09:18:29;;;;;;;;;1.00;1.00;;;;;14.63;88.96;102378.44;5142270;27;45330;-77
2023/02/19 09:20:56;;;;;;;;;1.67;1.33;;;;;14.62;88.96;102366.91;5142028;27;45332;-77
2023/02/19 09:23:21;;;;;;;;;3.33;3.33;;;;;14.69;90.45;102380.47;5141760;27;46172;-77
2023/02/19 09:25:47;;;;;;;;;2.00;2.00;;;;;14.67;89.23;102385.16;5141450;27;45417;-77
2023/02/19 09:28:12;;;;;;;;;4.00;4.00;;;;;14.68;90.56;102397.53;5141653;27;45376;-76
2023/02/19 09:30:37;;;;;;;;;4.33;2.33;;;;;14.74;90.74;102382.66;5141598;27;45494;-74
2023/02/19 09:33:04;;;;;;;;;4.67;3.33;;;;;14.83;91.25;102375.53;5135903;27;48177;-74
2023/02/19 09:35:29;;;;;;;;;4.67;4.00;;;;;14.87;90.69;102377.72;5141005;27;45356;-76
2023/02/19 09:37:58;;;;;;;;;2.67;1.67;;;;;14.94;88.15;102379.75;5141687;27;45310;-77
2023/02/19 09:40:23;;;;;;;;;2.00;2.00;;;;;15.01;89.26;102376.25;5141735;27;45376;-77
2023/02/19 09:42:50;;;;;;;;;3.00;2.00;;;;;15.00;88.72;102369.19;5141641;27;45225;-76
2023/02/19 09:45:23;;;;;;;;;2.33;2.33;;;;;15.09;89.11;102369.25;5140033;27;45770;-74
2023/02/19 09:47:51;;;;;;;;;4.33;3.33;;;;;15.20;88.66;102378.81;5131201;27;45259;-74
2023/02/19 09:50:21;;;;;;;;;5.67;3.33;;;;;15.27;88.55;102387.84;5123544;27;46206;-75
2023/02/19 09:53:00;;;;;;;;;3.33;3.33;;;;;15.30;86.92;102384.84;5133792;27;45579;-77
2023/02/19 09:55:35;;;;;;;;;4.33;2.33;;;;;15.30;85.91;102382.16;5136937;27;45211;-74
2023/02/19 09:58:07;;;;;;;;;2.00;1.67;;;;;15.29;84.74;102376.97;5140853;27;45582;-75
2023/02/19 10:00:35;;;;;;;;;3.00;2.67;;;;;15.37;87.18;102385.00;5117894;27;47046;-74
2023/02/19 10:03:04;;;;;;;;;4.00;2.00;;;;;15.48;87.25;102389.19;5126501;27;46350;-74
2023/02/19 10:05:30;;;;;;;;;2.00;2.00;;;;;15.51;87.38;102387.00;5137817;27;45345;-74
2023/02/19 10:07:57;;;;;;;;;2.00;2.00;;;;;15.49;85.80;102386.34;5140907;27;45757;-74
2023/02/19 10:10:34;;;;;;;;;1.00;1.00;;;;;15.52;83.66;102399.44;5140575;27;45476;-73
2023/02/19 10:13:18;;;;;;;;;2.00;2.00;;;;;15.54;85.86;102407.28;5140076;27;45275;-74
2023/02/19 10:15:56;;;;;;;;;2.00;2.00;;;;;15.53;84.19;102402.91;5133652;27;46751;-77
2023/02/19 10:18:24;;;;;;;;;2.00;2.00;;;;;15.48;82.61;102413.31;5137737;27;45418;-76
2023/02/19 10:20:52;;;;;;;;;4.33;3.67;;;;;15.46;83.39;102407.28;5138835;27;45927;-76
2023/02/19 10:23:18;;;;;;;;;2.67;2.67;;;;;15.48;83.45;102408.78;5140184;27;45385;-76
2023/02/19 10:25:53;;;;;;;;;3.33;1.67;;;;;15.58;84.52;102405.09;5140363;27;45397;-73
2023/02/19 10:28:21;;;;;;;;;5.00;4.00;;;;;15.62;83.14;102407.28;5139920;27;45396;-73
2023/02/19 10:30:53;;;;;;;;;7.33;4.00;;;;;15.72;84.23;102420.53;5110037;27;47267;-73
2023/02/19 10:33:19;;;;;;;;;3.33;3.00;;;;;15.78;81.48;102417.16;5119231;27;46235;-73
2023/02/19 10:36:04;;;;;;;;;3.00;3.00;;;;;15.84;82.17;102414.81;5137666;27;45388;-74
2023/02/19 10:38:35;;;;;;;;;4.67;2.00;;;;;15.83;81.98;102410.47;5126305;27;45433;-73
2023/02/19 10:41:12;;;;;;;;;4.67;3.00;;;;;15.91;80.15;102423.88;5125233;27;45248;-74
2023/02/19 10:43:42;;;;;;;;;1.00;1.00;;;;;15.94;79.59;102428.91;5135282;27;45602;-74
2023/02/19 10:46:25;;;;;;;;;3.00;3.00;;;;;16.01;79.44;102437.97;5120618;27;45431;-74
2023/02/19 10:48:57;;;;;;;;;3.00;3.00;;;;;16.11;79.32;102451.22;5137228;27;45599;-73
2023/02/19 10:51:51;;;;;;;;;4.00;3.00;;;;;16.10;78.36;102457.56;5126720;27;45560;-74
2023/02/19 10:54:18;;;;;;;;;4.00;2.00;;;;;16.08;76.96;102448.03;5137414;27;45285;-74
2023/02/19 10:56:44;;;;;;;;;0.00;0.00;;;;;16.09;79.58;102447.84;5122053;27;46019;-74
2023/02/19 10:59:28;;;;;;;;;4.67;3.00;;;;;16.12;79.96;102457.41;5139258;27;45337;-74
2023/02/19 11:01:56;;;;;;;;;3.67;3.67;;;;;16.18;77.20;102462.09;5140459;27;45237;-75
2023/02/19 11:04:22;;;;;;;;;5.67;5.67;;;;;16.22;78.18;102454.56;5140608;27;46045;-75
2023/02/19 11:06:48;;;;;;;;;4.00;3.00;;;;;16.25;78.92;102448.84;5121770;27;45461;-74
2023/02/19 11:09:27;;;;;;;;;3.67;3.00;;;;;16.31;78.69;102460.72;5140548;27;45384;-74
2023/02/19 11:11:54;;;;;;;;;3.67;3.00;;;;;16.22;76.31;102450.00;5144015;27;45243;-74
2023/02/19 11:14:23;;;;;;;;;3.00;3.00;;;;;16.21;77.08;102458.22;5121955;27;47164;-75
2023/02/19 11:16:57;;;;;;;;;3.67;3.67;;;;;16.19;76.44;102442.28;5141982;27;45392;-74
2023/02/19 11:19:47;;;;;;;;;6.00;6.00;;;;;16.27;77.94;102444.13;5144323;27;45843;-75
2023/02/19 11:22:32;;;;;;;;;4.67;4.67;;;;;16.31;77.69;102448.13;5144074;27;45447;-74
2023/02/19 11:25:24;;;;;;;;;4.67;3.00;;;;;16.35;78.29;102446.81;5143430;27;45238;-75
2023/02/19 11:28:22;;;;;;;;;3.00;3.00;;;;;16.26;76.02;102445.97;5143684;27;45333;-74
2023/02/19 11:30:47;;;;;;;;;4.00;3.00;;;;;16.13;74.80;102461.75;5125454;27;45321;-75
2023/02/19 11:33:16;;;;;;;;;5.00;3.00;;;;;16.11;75.15;102458.41;5143482;27;45193;-75
2023/02/19 11:35:43;;;;;;;;;3.67;3.00;;;;;16.16;75.44;102461.41;5143853;27;45324;-74
2023/02/19 11:38:11;;;;;;;;;4.00;4.00;;;;;16.26;76.62;102454.00;5124924;27;45458;-75
2023/02/19 11:40:46;;;;;;;;;6.00;5.67;;;;;16.34;76.51;102469.25;5143634;27;45366;-75
2023/02/19 11:43:20;;;;;;;;;3.00;2.67;;;;;16.38;75.83;102473.28;5143475;27;45275;-74
2023/02/19 11:46:04;;;;;;;;;4.00;4.00;;;;;16.38;74.72;102477.81;5143251;27;45506;-75
2023/02/19 11:48:41;;;;;;;;;3.00;3.00;;;;;16.37;74.02;102497.63;5142106;27;45407;-74
2023/02/19 11:51:21;;;;;;;;;6.67;5.00;;;;;16.32;74.76;102492.75;5143731;27;45317;-74
2023/02/19 11:53:56;;;;;;;;;6.33;5.33;;;;;16.31;74.60;102491.06;5142901;27;45411;-75
2023/02/19 11:56:32;;;;;;;;;5.67;5.33;;;;;16.28;75.28;102480.66;5127378;27;45457;-77
2023/02/19 11:59:08;;;;;;;;;4.00;4.00;;;;;16.27;75.35;102471.81;5124028;27;45302;-75